createdAt,value
2023-04-27T00:01:01.099Z,62.20
2023-04-27T00:03:30.889Z,62.29
2023-04-27T00:05:57.746Z,62.35
2023-04-27T00:08:24.291Z,62.18
2023-04-27T00:10:50.749Z,62.23
2023-04-27T00:13:17.232Z,62.33
2023-04-27T00:15:45.660Z,62.13
2023-04-27T00:18:12.064Z,62.13
2023-04-27T00:20:38.790Z,62.29
2023-04-27T00:23:05.223Z,62.16
2023-04-27T00:25:31.736Z,62.19
2023-04-27T00:27:58.143Z,62.13
2023-04-27T00:30:24.647Z,62.04
2023-04-27T00:32:51.455Z,62.17
2023-04-27T00:35:17.970Z,62.14
2023-04-27T00:37:44.439Z,62.25
2023-04-27T00:40:11.126Z,62.44
2023-04-27T00:42:37.555Z,62.41
2023-04-27T00:45:05.312Z,62.40
2023-04-27T00:47:31.942Z,62.44
2023-04-27T00:49:59.437Z,62.47
2023-04-27T00:52:25.965Z,62.45
2023-04-27T00:54:52.832Z,62.38
2023-04-27T00:57:19.714Z,62.20
2023-04-27T00:59:46.269Z,62.33
2023-04-27T01:02:13.968Z,62.15
2023-04-27T01:04:40.645Z,62.24
2023-04-27T01:07:07.163Z,62.33
2023-04-27T01:09:33.560Z,62.31
2023-04-27T01:12:00.020Z,62.33
2023-04-27T01:14:26.536Z,62.13
2023-04-27T01:16:53.087Z,62.17
2023-04-27T01:19:19.566Z,62.10
2023-04-27T01:21:46.640Z,62.07
2023-04-27T01:24:13.149Z,62.34
2023-04-27T01:26:39.478Z,62.14
2023-04-27T01:29:06.455Z,62.16
2023-04-27T01:31:32.940Z,62.13
2023-04-27T01:33:59.424Z,62.09
2023-04-27T01:36:27.835Z,62.09
2023-04-27T01:38:54.209Z,62.19
2023-04-27T01:41:21.634Z,62.06
2023-04-27T01:43:48.147Z,62.07
2023-04-27T01:46:14.713Z,62.06
2023-04-27T01:48:41.846Z,62.13
2023-04-27T01:51:08.551Z,62.10
2023-04-27T01:53:35.021Z,62.13
2023-04-27T01:56:01.545Z,62.11
2023-04-27T01:58:28.116Z,62.29
2023-04-27T02:00:54.914Z,62.08
2023-04-27T02:03:21.793Z,62.17
2023-04-27T02:05:48.347Z,62.27
2023-04-27T02:08:14.827Z,62.15
2023-04-27T02:10:41.282Z,62.21
2023-04-27T02:13:07.741Z,62.19
2023-04-27T02:15:35.467Z,62.39
2023-04-27T02:18:03.918Z,62.14
2023-04-27T02:20:31.213Z,62.26
2023-04-27T02:22:57.730Z,62.23
2023-04-27T02:25:24.148Z,62.21
2023-04-27T02:27:50.764Z,62.34
2023-04-27T02:30:17.693Z,62.33
2023-04-27T02:32:44.891Z,62.11
2023-04-27T02:35:11.475Z,62.31
2023-04-27T02:37:38.036Z,62.18
2023-04-27T02:40:07.291Z,62.25
2023-04-27T02:42:33.722Z,62.26
2023-04-27T02:45:00.165Z,62.36
2023-04-27T02:47:26.919Z,62.36
2023-04-27T02:49:53.353Z,62.32
2023-04-27T02:52:19.792Z,62.42
2023-04-27T02:54:46.229Z,62.24
2023-04-27T02:57:12.629Z,62.39
2023-04-27T02:59:39.506Z,62.38
2023-04-27T03:02:05.964Z,62.36
2023-04-27T03:04:34.769Z,62.51
2023-04-27T03:07:01.218Z,62.51
2023-04-27T03:09:27.762Z,62.40
2023-04-27T03:11:54.253Z,62.55
2023-04-27T03:14:20.642Z,62.53
2023-04-27T03:16:47.149Z,62.56
2023-04-27T03:19:13.910Z,62.56
2023-04-27T03:21:40.593Z,62.50
2023-04-27T03:24:07.019Z,62.59
2023-04-27T03:26:33.495Z,62.53
2023-04-27T03:28:59.896Z,62.50
2023-04-27T03:31:26.290Z,62.63
2023-04-27T03:33:52.751Z,62.56
2023-04-27T03:36:19.178Z,62.55
2023-04-27T03:38:45.529Z,62.46
2023-04-27T03:41:12.663Z,62.60
2023-04-27T03:43:39.120Z,62.49
2023-04-27T03:46:05.569Z,62.57
2023-04-27T03:48:32.009Z,62.56
2023-04-27T03:50:58.398Z,62.57
2023-04-27T03:53:24.806Z,62.61
2023-04-27T03:55:51.640Z,62.76
2023-04-27T03:58:18.437Z,62.66
2023-04-27T04:00:44.994Z,62.62
2023-04-27T04:03:13.292Z,62.54
2023-04-27T04:05:40.277Z,62.60
2023-04-27T04:08:06.702Z,62.56
2023-04-27T04:10:33.104Z,62.56
2023-04-27T04:12:59.490Z,62.49
2023-04-27T04:15:25.954Z,62.46
2023-04-27T04:17:52.569Z,62.49
2023-04-27T04:20:19.076Z,62.66
2023-04-27T04:22:45.563Z,62.61
2023-04-27T04:25:13.095Z,62.66
2023-04-27T04:27:39.846Z,62.65
2023-04-27T04:30:07.159Z,62.65
2023-04-27T04:32:33.887Z,62.73
2023-04-27T04:35:01.573Z,62.62
2023-04-27T04:37:28.347Z,62.58
2023-04-27T04:39:54.874Z,62.61
2023-04-27T04:42:21.448Z,62.71
2023-04-27T04:44:47.968Z,62.75
2023-04-27T04:47:14.408Z,62.75
2023-04-27T04:49:40.843Z,62.62
2023-04-27T04:52:07.341Z,62.65
2023-04-27T04:54:33.810Z,62.72
2023-04-27T04:57:04.625Z,62.73
2023-04-27T04:59:33.363Z,62.67
2023-04-27T05:01:59.922Z,62.50
2023-04-27T05:04:26.721Z,62.71
2023-04-27T05:06:53.247Z,62.77
2023-04-27T05:09:19.582Z,62.54
2023-04-27T05:11:46.020Z,62.73
2023-04-27T05:14:12.489Z,62.63
2023-04-27T05:16:39.009Z,62.63
2023-04-27T05:19:06.071Z,62.65
2023-04-27T05:21:33.641Z,62.47
2023-04-27T05:24:00.123Z,62.53
2023-04-27T05:26:26.574Z,62.44
2023-04-27T05:28:52.980Z,62.41
2023-04-27T05:31:19.454Z,62.36
2023-04-27T05:33:45.927Z,62.23
2023-04-27T05:36:12.443Z,62.41
2023-04-27T05:38:42.369Z,62.44
2023-04-27T05:41:08.784Z,62.41
2023-04-27T05:43:35.880Z,62.47
2023-04-27T05:46:02.274Z,62.56
2023-04-27T05:48:28.762Z,62.57
2023-04-27T05:51:01.913Z,62.65
2023-04-27T05:53:28.605Z,62.63
2023-04-27T05:55:55.079Z,62.55
2023-04-27T05:58:21.934Z,62.57
2023-04-27T06:00:48.389Z,62.35
2023-04-27T06:03:14.909Z,62.26
2023-04-27T06:05:43.695Z,62.24
2023-04-27T06:08:11.005Z,62.11
2023-04-27T06:10:37.517Z,62.00
2023-04-27T06:13:06.537Z,61.97
2023-04-27T06:15:33.046Z,61.81
2023-04-27T06:17:59.525Z,61.72
2023-04-27T06:20:26.533Z,61.68
2023-04-27T06:22:52.985Z,61.68
2023-04-27T06:25:19.535Z,61.60
2023-04-27T06:27:46.119Z,61.67
2023-04-27T06:30:12.781Z,61.78
2023-04-27T06:32:39.236Z,61.55
2023-04-27T06:35:06.036Z,61.36
2023-04-27T06:37:32.814Z,61.59
2023-04-27T06:39:59.249Z,61.41
2023-04-27T06:42:25.704Z,61.37
2023-04-27T06:44:53.779Z,61.00
2023-04-27T06:47:21.187Z,61.25
2023-04-27T06:49:49.617Z,60.86
2023-04-27T06:52:16.351Z,60.85
2023-04-27T06:54:42.900Z,60.74
2023-04-27T06:57:09.880Z,60.88
2023-04-27T06:59:36.217Z,60.45
2023-04-27T07:02:03.238Z,60.74
2023-04-27T07:04:30.344Z,60.54
2023-04-27T07:06:57.390Z,60.23
2023-04-27T07:09:27.578Z,60.23
2023-04-27T07:11:54.798Z,60.07
2023-04-27T07:14:21.506Z,60.10
2023-04-27T07:16:47.979Z,60.22
2023-04-27T07:19:14.736Z,60.10
2023-04-27T07:21:42.639Z,59.96
2023-04-27T07:24:09.213Z,60.28
2023-04-27T07:26:36.567Z,60.14
2023-04-27T07:29:18.711Z,60.06
2023-04-27T07:31:52.167Z,59.86
2023-04-27T07:34:22.035Z,59.97
2023-04-27T07:36:48.458Z,60.04
2023-04-27T07:39:15.050Z,60.05
2023-04-27T07:41:41.619Z,59.92
2023-04-27T07:44:08.023Z,60.12
2023-04-27T07:46:34.469Z,60.34
2023-04-27T07:49:01.073Z,60.26
2023-04-27T07:51:28.816Z,60.44
2023-04-27T07:53:56.079Z,60.10
2023-04-27T07:56:22.461Z,60.09
2023-04-27T07:58:48.830Z,60.46
2023-04-27T08:01:15.297Z,60.23
2023-04-27T08:03:42.087Z,60.35
2023-04-27T08:06:09.001Z,60.26
2023-04-27T08:08:35.797Z,60.22
2023-04-27T08:11:02.325Z,60.32
2023-04-27T08:13:28.816Z,60.20
2023-04-27T08:15:59.454Z,60.08
2023-04-27T08:18:26.542Z,60.04
2023-04-27T08:20:53.279Z,60.18
2023-04-27T08:23:19.841Z,59.79
2023-04-27T08:25:46.487Z,59.87
2023-04-27T08:28:13.317Z,59.68
2023-04-27T08:30:39.746Z,59.62
2023-04-27T08:33:06.268Z,59.71
2023-04-27T08:35:32.835Z,59.56
2023-04-27T08:37:59.311Z,59.58
2023-04-27T08:40:25.773Z,59.80
2023-04-27T08:42:58.758Z,59.88
2023-04-27T08:45:25.598Z,59.75
2023-04-27T08:47:52.088Z,59.58
2023-04-27T08:50:18.772Z,59.50
2023-04-27T08:52:45.842Z,59.72
2023-04-27T08:55:15.026Z,59.69
2023-04-27T08:57:42.810Z,59.59
2023-04-27T09:00:13.248Z,59.34
2023-04-27T09:02:48.885Z,59.51
2023-04-27T09:05:24.629Z,59.63
2023-04-27T09:08:00.880Z,59.43
2023-04-27T09:10:29.640Z,59.52
2023-04-27T09:12:57.048Z,59.68
2023-04-27T09:15:23.775Z,59.38
2023-04-27T09:17:53.823Z,59.57
2023-04-27T09:20:20.243Z,59.87
2023-04-27T09:22:47.792Z,60.17
2023-04-27T09:25:30.246Z,60.23
2023-04-27T09:27:58.067Z,60.58
2023-04-27T09:30:24.997Z,60.22
2023-04-27T09:32:58.893Z,60.16
2023-04-27T09:35:28.045Z,60.05
2023-04-27T09:37:54.598Z,60.09
2023-04-27T09:40:26.414Z,60.05
2023-04-27T09:42:52.851Z,60.13
2023-04-27T09:45:20.314Z,59.93
2023-04-27T09:47:46.860Z,59.77
2023-04-27T09:50:13.508Z,59.76
2023-04-27T09:52:40.102Z,59.59
2023-04-27T09:55:08.106Z,59.55
2023-04-27T09:57:40.094Z,59.66
2023-04-27T10:00:11.123Z,59.62
2023-04-27T10:02:59.905Z,59.52
2023-04-27T10:05:32.422Z,59.81
2023-04-27T10:07:58.880Z,59.76
2023-04-27T10:10:25.544Z,59.64
2023-04-27T10:13:01.892Z,59.99
2023-04-27T10:15:29.353Z,59.82
2023-04-27T10:17:59.019Z,59.71
2023-04-27T10:20:29.261Z,59.60
2023-04-27T10:22:55.777Z,59.70
2023-04-27T10:25:23.795Z,59.56
2023-04-27T10:27:54.817Z,59.65
2023-04-27T10:30:22.599Z,59.68
2023-04-27T10:32:52.069Z,59.52
2023-04-27T10:35:19.069Z,59.57
2023-04-27T10:37:45.522Z,59.71
2023-04-27T10:40:17.441Z,59.59
2023-04-27T10:42:45.017Z,59.51
2023-04-27T10:45:12.954Z,59.41
2023-04-27T10:47:45.620Z,59.49
2023-04-27T10:50:15.963Z,59.52
2023-04-27T10:52:43.401Z,59.63
2023-04-27T10:55:20.253Z,59.67
2023-04-27T10:57:48.172Z,59.44
2023-04-27T11:00:16.540Z,59.44
2023-04-27T11:02:43.187Z,59.28
2023-04-27T11:05:17.608Z,59.35
2023-04-27T11:07:44.037Z,59.25
2023-04-27T11:10:15.187Z,59.44
2023-04-27T11:12:42.315Z,59.09
2023-04-27T11:15:09.270Z,59.06
2023-04-27T11:17:35.738Z,59.42
2023-04-27T11:20:02.266Z,59.24
2023-04-27T11:22:28.850Z,59.19
2023-04-27T11:24:55.389Z,59.12
2023-04-27T11:27:23.523Z,59.01
2023-04-27T11:29:50.073Z,59.21
2023-04-27T11:32:20.337Z,59.21
2023-04-27T11:34:57.283Z,59.12
2023-04-27T11:37:26.728Z,58.96
2023-04-27T11:39:57.479Z,59.01
2023-04-27T11:42:31.584Z,59.05
2023-04-27T11:44:59.184Z,58.87
2023-04-27T11:47:27.481Z,59.10
2023-04-27T11:49:57.951Z,58.88
2023-04-27T11:52:30.533Z,58.93
2023-04-27T11:54:56.971Z,58.99
2023-04-27T11:57:30.307Z,59.00
2023-04-27T11:59:57.680Z,59.00
2023-04-27T12:02:24.277Z,59.08
2023-04-27T12:04:51.045Z,59.04
2023-04-27T12:07:17.846Z,59.34
2023-04-27T12:09:44.589Z,59.26
2023-04-27T12:12:11.381Z,59.38
2023-04-27T12:14:37.782Z,59.27
2023-04-27T12:17:04.397Z,59.44
2023-04-27T12:19:31.236Z,59.07
2023-04-27T12:21:58.189Z,59.06
2023-04-27T12:24:24.842Z,58.94
2023-04-27T12:26:53.668Z,59.15
2023-04-27T12:29:20.751Z,59.04
2023-04-27T12:31:47.109Z,59.09
2023-04-27T12:34:13.951Z,59.16
2023-04-27T12:36:41.425Z,59.23
2023-04-27T12:39:13.840Z,59.34
2023-04-27T12:41:40.489Z,59.49
2023-04-27T12:44:07.040Z,59.27
2023-04-27T12:46:33.549Z,59.66
2023-04-27T12:49:00.048Z,59.85
2023-04-27T12:51:28.555Z,59.83
2023-04-27T12:53:55.001Z,59.81
2023-04-27T12:56:22.271Z,59.84
2023-04-27T12:58:48.774Z,59.95
2023-04-27T13:01:15.230Z,59.90
2023-04-27T13:03:42.276Z,60.12
2023-04-27T13:06:08.919Z,60.11
2023-04-27T13:08:38.410Z,60.35
2023-04-27T13:11:04.936Z,60.13
2023-04-27T13:13:31.971Z,59.85
2023-04-27T13:15:58.513Z,60.01
2023-04-27T13:18:25.182Z,59.96
2023-04-27T13:20:51.792Z,59.95
2023-04-27T13:23:18.248Z,59.85
2023-04-27T13:25:44.718Z,59.75
2023-04-27T13:28:11.185Z,60.25
2023-04-27T13:30:37.655Z,59.96
2023-04-27T13:33:18.399Z,59.90
2023-04-27T13:35:48.823Z,59.90
2023-04-27T13:38:15.487Z,59.96
2023-04-27T13:40:42.025Z,60.09
2023-04-27T13:43:08.522Z,60.03
2023-04-27T13:45:36.508Z,59.78
2023-04-27T13:48:03.122Z,59.63
2023-04-27T13:50:29.618Z,59.70
2023-04-27T13:52:56.153Z,59.76
2023-04-27T13:55:22.638Z,59.62
2023-04-27T13:57:49.051Z,59.97
2023-04-27T14:00:15.720Z,59.79
2023-04-27T14:02:42.196Z,60.10
2023-04-27T14:05:08.788Z,59.71
2023-04-27T14:07:35.764Z,59.89
2023-04-27T14:10:05.548Z,59.87
2023-04-27T14:12:32.265Z,60.14
2023-04-27T14:14:59.162Z,60.19
2023-04-27T14:17:25.699Z,60.29
2023-04-27T14:19:52.263Z,60.05
2023-04-27T14:22:18.723Z,59.98
2023-04-27T14:24:45.243Z,60.22
2023-04-27T14:27:11.686Z,60.20
2023-04-27T14:29:38.356Z,60.23
2023-04-27T14:32:05.720Z,60.14
2023-04-27T14:34:32.228Z,60.03
2023-04-27T14:36:58.612Z,60.04
2023-04-27T14:39:25.082Z,60.22
2023-04-27T14:41:51.727Z,60.18
2023-04-27T14:44:18.158Z,60.11
2023-04-27T14:46:44.616Z,60.62
2023-04-27T14:49:11.080Z,60.55
2023-04-27T14:51:37.518Z,60.53
2023-04-27T14:54:04.435Z,61.00
2023-04-27T14:56:30.963Z,60.73
2023-04-27T14:58:57.631Z,61.05
2023-04-27T15:01:24.106Z,60.85
2023-04-27T15:03:52.977Z,60.69
2023-04-27T15:06:22.365Z,60.52
2023-04-27T15:08:48.842Z,60.37
2023-04-27T15:11:15.688Z,60.31
2023-04-27T15:13:42.131Z,60.63
2023-04-27T15:16:08.692Z,60.60
2023-04-27T15:18:35.474Z,60.55
2023-04-27T15:21:02.419Z,60.51
2023-04-27T15:23:32.145Z,60.61
2023-04-27T15:25:58.679Z,60.37
2023-04-27T15:28:25.167Z,60.48
2023-04-27T15:30:52.110Z,60.35
2023-04-27T15:33:19.240Z,60.38
2023-04-27T15:35:45.966Z,60.41
2023-04-27T15:38:12.797Z,60.35
2023-04-27T15:40:39.574Z,60.11
2023-04-27T15:43:06.092Z,60.56
2023-04-27T15:45:32.593Z,60.25
2023-04-27T15:48:00.579Z,60.52
2023-04-27T15:50:27.246Z,60.39
2023-04-27T15:52:56.292Z,60.51
2023-04-27T15:55:22.809Z,60.61
2023-04-27T15:57:49.421Z,60.24
2023-04-27T16:00:16.915Z,60.39
2023-04-27T16:02:43.799Z,60.21
2023-04-27T16:05:12.540Z,60.13
2023-04-27T16:07:42.022Z,60.07
2023-04-27T16:10:08.968Z,60.05
2023-04-27T16:12:35.591Z,60.21
2023-04-27T16:15:01.952Z,60.24
2023-04-27T16:17:29.201Z,60.26
2023-04-27T16:19:55.966Z,60.74
2023-04-27T16:22:22.468Z,60.74
2023-04-27T16:24:49.478Z,60.80
2023-04-27T16:27:17.250Z,60.61
2023-04-27T16:29:43.839Z,60.61
2023-04-27T16:32:11.084Z,60.31
2023-04-27T16:34:38.182Z,60.22
2023-04-27T16:37:05.925Z,60.61
2023-04-27T16:39:32.820Z,60.57
2023-04-27T16:41:59.252Z,60.21
2023-04-27T16:44:26.195Z,60.12
2023-04-27T16:46:52.757Z,60.20
2023-04-27T16:49:19.198Z,60.45
2023-04-27T16:51:45.746Z,60.35
2023-04-27T16:54:16.215Z,60.30
2023-04-27T16:56:42.842Z,60.75
2023-04-27T16:59:12.317Z,60.82
2023-04-27T17:01:39.174Z,60.52
2023-04-27T17:04:05.988Z,60.65
2023-04-27T17:06:33.141Z,60.65
2023-04-27T17:08:59.618Z,60.77
2023-04-27T17:11:26.503Z,60.75
2023-04-27T17:13:53.151Z,60.99
2023-04-27T17:16:19.775Z,60.97
2023-04-27T17:18:46.991Z,60.97
2023-04-27T17:21:13.580Z,60.68
2023-04-27T17:23:41.461Z,60.86
2023-04-27T17:26:08.091Z,60.82
2023-04-27T17:28:34.696Z,60.77
2023-04-27T17:31:01.817Z,60.83
2023-04-27T17:33:28.279Z,60.82
2023-04-27T17:35:54.816Z,61.04
2023-04-27T17:38:21.225Z,61.00
2023-04-27T17:40:47.579Z,61.10
2023-04-27T17:43:14.020Z,61.12
2023-04-27T17:45:40.612Z,61.10
2023-04-27T17:48:07.533Z,61.40
2023-04-27T17:50:37.520Z,61.23
2023-04-27T17:53:04.058Z,61.19
2023-04-27T17:55:30.511Z,61.56
2023-04-27T17:57:56.902Z,61.45
2023-04-27T18:00:23.378Z,61.56
2023-04-27T18:02:50.163Z,61.37
2023-04-27T18:05:17.934Z,61.29
2023-04-27T18:07:46.229Z,61.46
2023-04-27T18:10:12.808Z,61.45
2023-04-27T18:12:39.364Z,61.40
2023-04-27T18:15:08.569Z,61.56
2023-04-27T18:17:36.315Z,61.41
2023-04-27T18:20:09.503Z,61.70
2023-04-27T18:22:37.927Z,61.47
2023-04-27T18:25:04.601Z,61.67
2023-04-27T18:27:32.995Z,61.37
2023-04-27T18:29:59.458Z,61.52
2023-04-27T18:32:26.000Z,61.31
2023-04-27T18:34:52.427Z,61.63
2023-04-27T18:37:18.841Z,61.56
2023-04-27T18:39:45.361Z,61.24
2023-04-27T18:42:11.712Z,61.35
2023-04-27T18:44:38.105Z,61.75
2023-04-27T18:47:04.708Z,61.84
2023-04-27T18:49:31.299Z,61.81
2023-04-27T18:51:57.827Z,61.92
2023-04-27T18:54:24.270Z,61.53
2023-04-27T18:56:53.065Z,61.89
2023-04-27T18:59:19.950Z,61.97
2023-04-27T19:01:46.437Z,61.80
2023-04-27T19:04:13.284Z,61.85
2023-04-27T19:06:39.811Z,61.91
2023-04-27T19:09:06.329Z,61.87
2023-04-27T19:11:32.768Z,61.67
2023-04-27T19:13:59.205Z,61.71
2023-04-27T19:16:25.719Z,61.54
2023-04-27T19:18:52.367Z,61.84
2023-04-27T19:21:18.889Z,61.97
2023-04-27T19:23:45.559Z,61.85
2023-04-27T19:26:13.650Z,61.88
2023-04-27T19:28:40.692Z,62.04
2023-04-27T19:31:07.599Z,61.96
2023-04-27T19:33:34.257Z,61.93
2023-04-27T19:36:00.988Z,61.90
2023-04-27T19:38:27.493Z,62.05
2023-04-27T19:40:53.981Z,62.11
2023-04-27T19:43:20.967Z,61.98
2023-04-27T19:45:49.484Z,61.93
2023-04-27T19:48:16.174Z,62.22
2023-04-27T19:50:42.961Z,62.16
2023-04-27T19:53:10.004Z,62.09
2023-04-27T19:55:37.259Z,62.05
2023-04-27T19:58:03.820Z,62.08
2023-04-27T20:00:30.583Z,62.11
2023-04-27T20:02:57.341Z,62.09
2023-04-27T20:05:24.414Z,62.01
2023-04-27T20:07:51.124Z,61.89
2023-04-27T20:10:17.631Z,62.13
2023-04-27T20:12:54.351Z,62.18
2023-04-27T20:15:22.303Z,62.20
2023-04-27T20:17:48.813Z,62.21
2023-04-27T20:20:15.374Z,62.25
2023-04-27T20:22:41.851Z,62.44
2023-04-27T20:25:08.568Z,62.46
2023-04-27T20:27:37.918Z,62.39
2023-04-27T20:30:04.536Z,62.54
2023-04-27T20:32:31.087Z,62.29
2023-04-27T20:35:02.083Z,62.28
2023-04-27T20:37:28.735Z,62.69
2023-04-27T20:39:55.879Z,62.37
2023-04-27T20:42:22.646Z,62.36
2023-04-27T20:44:49.153Z,62.37
2023-04-27T20:47:15.725Z,62.46
2023-04-27T20:49:42.274Z,62.65
2023-04-27T20:52:08.926Z,62.47
2023-04-27T20:54:36.238Z,62.40
2023-04-27T20:57:03.808Z,62.63
2023-04-27T20:59:30.346Z,62.37
2023-04-27T21:01:57.008Z,62.33
2023-04-27T21:04:23.656Z,62.24
2023-04-27T21:06:50.224Z,62.43
2023-04-27T21:09:16.697Z,62.55
2023-04-27T21:11:43.210Z,62.26
2023-04-27T21:14:09.661Z,62.46
2023-04-27T21:16:36.164Z,62.63
2023-04-27T21:19:02.593Z,62.36
2023-04-27T21:21:28.933Z,62.42
2023-04-27T21:24:06.815Z,62.35
2023-04-27T21:26:42.476Z,62.38
2023-04-27T21:29:08.980Z,62.29
2023-04-27T21:31:35.967Z,62.54
2023-04-27T21:34:03.546Z,62.35
2023-04-27T21:36:32.177Z,62.46
2023-04-27T21:38:58.546Z,62.57
2023-04-27T21:41:25.879Z,62.57
2023-04-27T21:43:52.369Z,62.59
2023-04-27T21:46:18.827Z,62.43
2023-04-27T21:48:46.415Z,62.69
2023-04-27T21:51:12.909Z,62.52
2023-04-27T21:53:39.340Z,62.57
2023-04-27T21:56:05.933Z,62.51
2023-04-27T21:58:32.338Z,62.62
2023-04-27T22:00:58.733Z,62.43
2023-04-27T22:03:25.217Z,62.76
2023-04-27T22:05:52.815Z,62.39
2023-04-27T22:08:20.066Z,62.37
2023-04-27T22:10:47.290Z,62.69
2023-04-27T22:15:43.172Z,62.72
2023-04-27T22:18:11.253Z,62.44
2023-04-27T22:20:38.438Z,62.53
2023-04-27T22:23:04.907Z,62.43
2023-04-27T22:25:31.590Z,62.72
2023-04-27T22:28:00.616Z,62.60
2023-04-27T22:30:27.577Z,62.60
2023-04-27T22:32:54.114Z,62.44
2023-04-27T22:35:27.028Z,62.53
2023-04-27T22:37:57.347Z,62.50
2023-04-27T22:40:29.606Z,62.37
2023-04-27T22:42:56.244Z,62.53
2023-04-27T22:45:23.101Z,62.64
2023-04-27T22:47:49.710Z,62.48
2023-04-27T22:50:16.595Z,62.43
2023-04-27T22:52:43.154Z,62.45
2023-04-27T22:55:10.129Z,62.58
2023-04-27T22:57:36.913Z,62.55
2023-04-27T23:00:05.598Z,62.37
2023-04-27T23:02:32.329Z,62.30
2023-04-27T23:04:59.340Z,62.25
2023-04-27T23:07:25.872Z,62.39
2023-04-27T23:09:52.896Z,62.37
2023-04-27T23:12:20.782Z,62.53
2023-04-27T23:14:47.241Z,62.37
2023-04-27T23:17:15.590Z,62.61
2023-04-27T23:19:42.010Z,62.46
2023-04-27T23:22:08.484Z,62.36
2023-04-27T23:24:34.901Z,62.34
2023-04-27T23:27:02.276Z,62.45
2023-04-27T23:29:29.067Z,62.56
2023-04-27T23:31:55.573Z,62.55
2023-04-27T23:34:22.057Z,62.42
2023-04-27T23:36:48.467Z,62.38
2023-04-27T23:39:14.894Z,62.73
2023-04-27T23:41:41.359Z,62.62
2023-04-27T23:44:08.459Z,62.52
2023-04-27T23:46:34.966Z,62.44
2023-04-27T23:49:01.574Z,62.41
2023-04-27T23:51:28.220Z,62.52
2023-04-27T23:53:54.670Z,62.52
2023-04-27T23:56:21.323Z,62.38
2023-04-27T23:58:47.847Z,62.41
